Time;durP1;ratioP1;P1;durP2;ratioP2;P2;SDS_P1;SDS_P2;PMS_P1;PMS_P2;Temp;Humidity;BMP_temperature;BMP_pressure;BME280_temperature;BME280_humidity;BME280_pressure;Samples;Min_cycle;Max_cycle;Signal;HPM_P1;HPM_P2
2021/07/11 00:01:31;;;;;;;5.53;3.53;;;19.50;99.90;;;;;;4130404;28;20043;-72
2021/07/11 00:03:32;;;;;;;7.18;4.38;;;19.50;99.90;;;;;;4135318;28;20053;-72
2021/07/11 00:05:32;;;;;;;6.30;4.57;;;19.50;99.90;;;;;;4132204;28;20112;-72
2021/07/11 00:07:33;;;;;;;4.40;3.85;;;19.50;99.90;;;;;;4133023;28;20034;-72
2021/07/11 00:09:33;;;;;;;6.10;4.85;;;19.50;99.90;;;;;;4134318;28;20050;-72
2021/07/11 00:11:34;;;;;;;7.30;4.68;;;19.50;99.90;;;;;;4138369;28;20053;-72
2021/07/11 00:13:35;;;;;;;6.18;4.93;;;19.50;99.90;;;;;;4135097;28;20034;-72
2021/07/11 00:15:35;;;;;;;8.43;5.43;;;19.50;99.90;;;;;;4134639;28;20045;-72
2021/07/11 00:17:36;;;;;;;8.18;5.28;;;19.50;99.90;;;;;;4140024;28;20072;-72
2021/07/11 00:19:37;;;;;;;6.70;5.18;;;19.50;99.90;;;;;;4132708;28;20034;-72
2021/07/11 00:21:38;;;;;;;7.68;5.35;;;19.60;99.90;;;;;;4139103;28;20863;-72
2021/07/11 00:23:38;;;;;;;7.07;5.15;;;19.50;99.90;;;;;;4132672;28;20042;-72
2021/07/11 00:25:39;;;;;;;6.93;4.93;;;19.60;99.90;;;;;;4135277;28;20058;-72
2021/07/11 00:27:41;;;;;;;7.68;5.15;;;19.60;99.90;;;;;;4139090;28;20492;-72
2021/07/11 00:29:41;;;;;;;7.27;5.43;;;19.60;99.90;;;;;;4134178;28;20034;-72
2021/07/11 00:31:42;;;;;;;10.52;6.00;;;19.60;99.90;;;;;;4130611;28;20773;-72
2021/07/11 00:33:42;;;;;;;8.07;5.65;;;19.60;99.90;;;;;;4133843;28;21132;-72
2021/07/11 00:35:43;;;;;;;9.30;6.03;;;19.60;99.90;;;;;;4140253;28;20155;-72
2021/07/11 00:37:44;;;;;;;7.75;5.60;;;19.60;99.90;;;;;;4135709;28;20470;-72
2021/07/11 00:39:44;;;;;;;8.25;6.05;;;19.60;99.90;;;;;;4132348;28;20034;-72
2021/07/11 00:41:45;;;;;;;11.27;6.57;;;19.60;99.90;;;;;;4139917;28;20069;-72
2021/07/11 00:43:46;;;;;;;9.55;6.68;;;19.60;99.90;;;;;;4137919;28;20048;-72
2021/07/11 00:45:46;;;;;;;8.80;5.90;;;19.60;99.90;;;;;;4139131;28;20100;-72
2021/07/11 00:47:47;;;;;;;12.45;7.65;;;19.60;99.90;;;;;;4133436;28;20030;-72
2021/07/11 00:49:48;;;;;;;8.48;6.30;;;19.50;99.90;;;;;;4137093;28;20039;-72
2021/07/11 00:51:49;;;;;;;11.25;7.53;;;19.60;99.90;;;;;;4135866;28;20403;-72
2021/07/11 00:53:53;;;;;;;11.48;7.30;;;19.50;99.90;;;;;;4136883;28;20038;-72
2021/07/11 00:55:54;;;;;;;10.85;7.47;;;19.50;99.90;;;;;;4136200;28;20034;-72
2021/07/11 00:57:55;;;;;;;13.70;8.00;;;19.60;99.90;;;;;;4133915;28;20621;-72
2021/07/11 00:59:55;;;;;;;14.60;8.65;;;19.50;99.90;;;;;;4138812;28;20038;-72
2021/07/11 01:02:20;;;;;;;13.82;8.57;;;19.50;99.90;;;;;;4131570;28;20121;-72
2021/07/11 01:04:32;;;;;;;15.00;8.63;;;19.50;99.90;;;;;;4137318;28;20034;-72
2021/07/11 01:06:39;;;;;;;14.40;8.43;;;19.50;99.90;;;;;;4138447;28;20056;-71
2021/07/11 01:08:55;;;;;;;16.17;8.77;;;19.50;99.90;;;;;;4139837;28;20100;-72
2021/07/11 01:11:03;;;;;;;14.43;9.30;;;19.40;99.90;;;;;;4135921;28;20035;-72
2021/07/11 01:13:07;;;;;;;17.38;10.27;;;19.50;99.90;;;;;;4132873;28;20054;-72
2021/07/11 01:15:08;;;;;;;14.38;9.30;;;19.40;99.90;;;;;;4130199;28;20047;-72
2021/07/11 01:17:10;;;;;;;13.85;8.35;;;19.40;99.90;;;;;;4140084;28;20087;-72
2021/07/11 01:19:26;;;;;;;16.75;8.70;;;19.40;99.90;;;;;;4118651;28;20100;-72
2021/07/11 01:21:32;;;;;;;16.00;10.13;;;19.40;99.90;;;;;;4148444;28;20559;-72
2021/07/11 01:23:52;;;;;;;15.02;9.70;;;19.40;99.90;;;;;;4134967;28;20041;-72
2021/07/11 01:25:53;;;;;;;17.08;9.90;;;19.30;99.90;;;;;;4141467;28;20116;-72
2021/07/11 01:27:54;;;;;;;13.00;8.77;;;19.30;99.90;;;;;;4133405;28;20041;-72
2021/07/11 01:29:57;;;;;;;14.10;8.40;;;19.40;99.90;;;;;;4135247;28;20046;-72
2021/07/11 01:32:00;;;;;;;13.95;9.30;;;19.30;99.90;;;;;;4138201;28;20371;-72
2021/07/11 01:34:02;;;;;;;16.85;9.93;;;19.30;99.90;;;;;;4131127;28;20113;-72
2021/07/11 01:36:05;;;;;;;15.55;9.25;;;19.30;99.90;;;;;;4133757;28;20445;-72
2021/07/11 01:38:06;;;;;;;15.80;9.15;;;19.30;99.90;;;;;;4137681;28;20679;-72
2021/07/11 01:40:08;;;;;;;20.50;10.93;;;19.30;99.90;;;;;;4141457;28;20065;-72
2021/07/11 01:42:09;;;;;;;16.52;10.35;;;19.20;99.90;;;;;;4136259;28;20034;-72
2021/07/11 01:44:11;;;;;;;14.90;9.02;;;19.20;99.90;;;;;;4135341;28;20057;-72
2021/07/11 01:46:12;;;;;;;13.77;8.55;;;19.30;99.90;;;;;;4135216;28;20038;-72
2021/07/11 01:48:13;;;;;;;14.82;9.00;;;19.30;99.90;;;;;;4136854;28;20117;-72
2021/07/11 01:50:15;;;;;;;12.18;8.25;;;19.30;99.90;;;;;;4135519;28;20045;-72
2021/07/11 01:52:16;;;;;;;11.40;7.68;;;19.30;99.90;;;;;;4140756;28;20092;-72
2021/07/11 01:54:17;;;;;;;10.35;7.03;;;19.20;99.90;;;;;;4136043;28;20471;-72
2021/07/11 01:56:18;;;;;;;12.43;8.05;;;19.20;99.90;;;;;;4138584;28;20397;-72
2021/07/11 01:58:19;;;;;;;11.98;7.57;;;19.30;99.90;;;;;;4137293;28;20034;-72
2021/07/11 02:00:21;;;;;;;11.70;7.85;;;19.30;99.90;;;;;;4136726;28;20099;-72
2021/07/11 02:02:22;;;;;;;14.60;7.70;;;19.30;99.90;;;;;;4138783;28;20038;-72
2021/07/11 02:04:22;;;;;;;11.90;7.07;;;19.30;99.90;;;;;;4138206;28;20074;-72
2021/07/11 02:06:23;;;;;;;10.32;7.50;;;19.30;99.90;;;;;;4135325;28;20081;-72
2021/07/11 02:08:24;;;;;;;13.25;7.32;;;19.30;99.90;;;;;;4131565;28;20042;-72
2021/07/11 02:10:24;;;;;;;11.10;6.97;;;19.30;99.90;;;;;;4133363;28;20108;-72
2021/07/11 02:12:29;;;;;;;12.00;6.75;;;19.30;99.90;;;;;;4132295;28;20057;-72
2021/07/11 02:14:32;;;;;;;11.48;7.50;;;19.40;99.90;;;;;;4133353;28;20027;-72
2021/07/11 02:16:37;;;;;;;13.25;7.30;;;19.40;99.90;;;;;;4137322;28;20041;-72
2021/07/11 02:18:39;;;;;;;14.70;7.00;;;19.40;99.90;;;;;;4138399;28;20034;-72
2021/07/11 02:20:42;;;;;;;9.60;6.95;;;19.40;99.90;;;;;;4134613;28;20371;-72
2021/07/11 02:22:46;;;;;;;;;;;19.40;99.90;;;;;;4131273;28;20379;-72
2021/07/11 02:24:49;;;;;;;9.75;6.55;;;19.40;99.90;;;;;;4138675;28;20349;-72
2021/07/11 02:26:51;;;;;;;10.35;6.95;;;19.40;99.90;;;;;;4131628;28;20034;-72
2021/07/11 02:28:52;;;;;;;8.40;6.57;;;19.40;99.90;;;;;;4137311;28;20592;-72
2021/07/11 02:30:57;;;;;;;10.65;7.22;;;19.40;99.90;;;;;;4139638;28;20023;-72
2021/07/11 02:32:59;;;;;;;11.00;7.35;;;19.30;99.90;;;;;;4133867;28;20764;-72
2021/07/11 02:35:01;;;;;;;9.30;6.17;;;19.20;99.90;;;;;;4132999;28;21738;-72
2021/07/11 02:37:03;;;;;;;9.32;6.63;;;19.20;99.90;;;;;;4135542;28;20026;-72
2021/07/11 02:39:17;;;;;;;11.23;6.80;;;19.20;99.90;;;;;;4138617;28;20038;-72
2021/07/11 02:41:19;;;;;;;8.20;6.43;;;19.30;99.90;;;;;;4137261;28;20482;-72
2021/07/11 02:43:21;;;;;;;11.45;7.13;;;19.20;99.90;;;;;;4134648;28;20054;-72
2021/07/11 02:45:22;;;;;;;9.60;7.70;;;19.20;99.90;;;;;;4139690;28;20610;-72
2021/07/11 02:47:29;;;;;;;12.23;8.38;;;19.20;99.90;;;;;;4139601;28;20335;-72
2021/07/11 02:49:32;;;;;;;9.30;7.40;;;19.10;99.90;;;;;;4138064;28;20118;-72
2021/07/11 02:51:37;;;;;;;9.10;7.38;;;19.10;99.90;;;;;;4118768;28;20049;-72
2021/07/11 02:53:38;;;;;;;10.13;7.50;;;19.10;99.90;;;;;;4136457;28;20367;-72
2021/07/11 02:55:39;;;;;;;8.77;6.63;;;19.00;99.90;;;;;;4136459;28;20038;-72
2021/07/11 02:57:43;;;;;;;8.05;6.50;;;19.00;99.90;;;;;;4136735;28;20049;-72
2021/07/11 02:59:46;;;;;;;11.15;7.78;;;19.00;99.90;;;;;;4141201;28;20037;-72
2021/07/11 03:01:48;;;;;;;8.98;7.15;;;18.90;99.90;;;;;;4139538;28;20038;-72
2021/07/11 03:03:49;;;;;;;9.98;7.70;;;18.90;99.90;;;;;;4136020;28;20798;-72
2021/07/11 03:05:50;;;;;;;8.93;7.15;;;18.90;99.90;;;;;;4129340;28;20042;-72
2021/07/11 03:07:51;;;;;;;8.43;7.13;;;18.90;99.90;;;;;;4136370;28;20057;-72
2021/07/11 03:09:52;;;;;;;9.40;7.35;;;18.90;99.90;;;;;;4136580;28;20502;-72
2021/07/11 03:11:53;;;;;;;11.75;8.10;;;18.90;99.90;;;;;;4137662;28;20030;-72
2021/07/11 03:13:56;;;;;;;11.23;8.80;;;18.80;99.90;;;;;;4140123;28;20466;-72
2021/07/11 03:15:58;;;;;;;9.82;7.95;;;18.80;99.90;;;;;;4136303;28;20379;-72
2021/07/11 03:18:00;;;;;;;11.37;8.10;;;18.80;99.90;;;;;;4120026;28;20208;-72
2021/07/11 03:20:03;;;;;;;10.48;7.57;;;18.80;99.90;;;;;;4130654;28;20273;-72
2021/07/11 03:22:04;;;;;;;9.75;7.35;;;18.80;99.90;;;;;;4130479;28;20038;-72
2021/07/11 03:24:06;;;;;;;9.20;8.05;;;18.80;99.90;;;;;;4132369;28;20095;-72
2021/07/11 03:26:08;;;;;;;9.63;7.65;;;18.70;99.90;;;;;;4134508;28;20056;-72
2021/07/11 03:28:09;;;;;;;14.10;8.40;;;18.80;99.90;;;;;;4136543;28;20034;-72
2021/07/11 03:30:13;;;;;;;10.35;8.48;;;18.80;99.90;;;;;;4133900;28;20050;-72
2021/07/11 03:32:15;;;;;;;9.85;8.30;;;18.70;99.90;;;;;;4134447;28;20077;-72
2021/07/11 03:34:16;;;;;;;10.23;8.87;;;18.70;99.90;;;;;;4139333;28;20537;-72
2021/07/11 03:36:18;;;;;;;10.98;8.63;;;18.80;99.90;;;;;;4135573;28;20046;-72
2021/07/11 03:38:25;;;;;;;9.75;8.20;;;18.80;99.90;;;;;;4139228;28;20096;-72
2021/07/11 03:40:30;;;;;;;9.63;7.85;;;18.80;99.90;;;;;;4136350;28;20046;-72
2021/07/11 03:42:35;;;;;;;10.65;8.13;;;18.80;99.90;;;;;;4136455;28;20041;-72
2021/07/11 03:44:37;;;;;;;12.70;8.88;;;18.80;99.90;;;;;;4140125;28;20053;-72
2021/07/11 03:46:41;;;;;;;11.63;8.68;;;18.80;99.90;;;;;;4137815;28;20042;-72
2021/07/11 03:48:53;;;;;;;12.30;8.60;;;18.80;99.90;;;;;;4134800;28;20102;-72
2021/07/11 03:51:00;;;;;;;15.35;9.27;;;18.80;99.90;;;;;;4135590;28;20034;-72
2021/07/11 03:53:07;;;;;;;9.93;8.25;;;18.80;99.90;;;;;;4153759;28;20030;-72
2021/07/11 03:55:08;;;;;;;15.93;9.60;;;18.80;99.90;;;;;;4133864;28;20054;-72
2021/07/11 03:57:12;;;;;;;10.88;8.50;;;18.80;99.90;;;;;;4128461;28;20034;-72
2021/07/11 03:59:15;;;;;;;10.57;8.18;;;18.80;99.90;;;;;;4138889;28;20437;-72
2021/07/11 04:01:20;;;;;;;11.30;8.93;;;18.80;99.90;;;;;;4133131;28;20542;-72
2021/07/11 04:03:24;;;;;;;13.88;9.88;;;18.70;99.90;;;;;;4134597;28;20049;-72
2021/07/11 04:05:28;;;;;;;12.77;9.45;;;18.70;99.90;;;;;;4135000;28;20035;-72
2021/07/11 04:07:32;;;;;;;13.73;10.23;;;18.70;99.90;;;;;;4133370;28;20498;-73
2021/07/11 04:09:34;;;;;;;10.80;8.60;;;18.70;99.90;;;;;;4131359;28;20034;-72
2021/07/11 04:11:36;;;;;;;11.30;9.05;;;18.70;99.90;;;;;;4128507;28;20707;-72
2021/07/11 04:13:36;;;;;;;14.40;10.43;;;18.70;99.90;;;;;;4131108;28;20500;-72
2021/07/11 04:15:37;;;;;;;14.50;11.02;;;18.70;99.90;;;;;;4139233;28;20057;-72
2021/07/11 04:17:38;;;;;;;12.95;9.85;;;18.70;99.90;;;;;;4135934;28;20386;-72
2021/07/11 04:19:41;;;;;;;12.75;9.65;;;18.70;99.90;;;;;;4122964;28;20045;-72
2021/07/11 04:21:43;;;;;;;12.20;9.77;;;18.70;99.90;;;;;;4138476;28;20136;-72
2021/07/11 04:23:45;;;;;;;13.80;10.15;;;18.60;99.90;;;;;;4142125;28;20037;-72
2021/07/11 04:25:46;;;;;;;13.07;10.45;;;18.60;99.90;;;;;;4140791;28;20037;-72
2021/07/11 04:27:48;;;;;;;13.27;10.35;;;18.60;99.90;;;;;;4139620;28;20508;-72
2021/07/11 04:29:50;;;;;;;15.57;10.95;;;18.60;99.90;;;;;;4140128;28;20054;-72
2021/07/11 04:31:51;;;;;;;16.05;11.40;;;18.50;99.90;;;;;;4140864;28;20030;-72
2021/07/11 04:33:52;;;;;;;13.27;11.05;;;18.40;99.90;;;;;;4141575;28;20060;-72
2021/07/11 04:35:53;;;;;;;15.23;11.35;;;18.40;99.90;;;;;;4138629;28;20034;-72
2021/07/11 04:37:53;;;;;;;15.15;10.95;;;18.40;99.90;;;;;;4141595;28;20107;-72
2021/07/11 04:39:54;;;;;;;13.35;10.60;;;18.40;99.90;;;;;;4138425;28;20382;-72
2021/07/11 04:41:55;;;;;;;14.35;10.88;;;18.30;99.90;;;;;;4140442;28;20500;-72
2021/07/11 04:44:02;;;;;;;13.57;10.30;;;18.30;99.90;;;;;;4143268;28;20036;-72
2021/07/11 04:46:03;;;;;;;12.35;9.93;;;18.30;99.90;;;;;;4137682;28;20030;-72
2021/07/11 04:48:04;;;;;;;15.30;11.10;;;18.40;99.90;;;;;;4136910;28;20430;-72
2021/07/11 04:50:06;;;;;;;14.60;11.35;;;18.30;99.90;;;;;;4140763;28;20021;-72
2021/07/11 04:52:07;;;;;;;14.35;11.02;;;18.30;99.90;;;;;;4137391;28;21626;-72
2021/07/11 04:54:09;;;;;;;14.48;10.63;;;18.30;99.90;;;;;;4138802;28;20036;-72
2021/07/11 04:56:10;;;;;;;15.93;11.07;;;18.40;99.90;;;;;;4142193;28;20050;-72
2021/07/11 04:58:11;;;;;;;12.52;10.27;;;18.40;99.90;;;;;;4138420;28;20058;-72
2021/07/11 05:00:14;;;;;;;13.40;9.35;;;18.40;99.90;;;;;;4139379;28;20041;-72
2021/07/11 05:02:14;;;;;;;17.08;12.38;;;18.40;99.90;;;;;;4141758;28;20558;-72
2021/07/11 05:04:15;;;;;;;13.90;11.30;;;18.40;99.90;;;;;;4131715;28;20070;-72
2021/07/11 05:06:16;;;;;;;14.82;11.23;;;18.40;99.90;;;;;;4131660;28;20061;-72
2021/07/11 05:08:16;;;;;;;22.80;14.77;;;18.40;99.90;;;;;;4137987;28;20072;-72
2021/07/11 05:10:17;;;;;;;20.98;13.70;;;18.40;99.90;;;;;;4138278;28;20406;-72
2021/07/11 05:12:18;;;;;;;17.48;13.07;;;18.40;99.90;;;;;;4137882;28;20514;-72
2021/07/11 05:14:18;;;;;;;16.98;12.63;;;18.40;99.90;;;;;;4137970;28;20042;-72
2021/07/11 05:16:19;;;;;;;16.23;12.25;;;18.40;99.90;;;;;;4137227;28;20052;-72
2021/07/11 05:18:19;;;;;;;16.10;12.68;;;18.40;99.90;;;;;;4138527;28;20042;-72
2021/07/11 05:20:20;;;;;;;14.85;12.10;;;18.40;99.90;;;;;;4142237;28;20121;-72
2021/07/11 05:22:20;;;;;;;15.50;12.00;;;18.50;99.90;;;;;;4129931;28;20479;-72
2021/07/11 05:24:21;;;;;;;18.27;12.70;;;18.50;99.90;;;;;;4134449;28;20042;-72
2021/07/11 05:26:22;;;;;;;15.73;11.23;;;18.50;99.90;;;;;;4140303;28;20479;-72
2021/07/11 05:28:23;;;;;;;13.40;10.60;;;18.50;99.90;;;;;;4141049;28;20053;-72
2021/07/11 05:30:24;;;;;;;18.17;13.88;;;18.50;99.90;;;;;;4135437;28;20034;-72
2021/07/11 05:32:24;;;;;;;17.13;13.20;;;18.60;99.90;;;;;;4141186;28;20077;-72
2021/07/11 05:34:25;;;;;;;20.45;14.88;;;18.50;99.90;;;;;;4132915;28;20069;-72
2021/07/11 05:36:27;;;;;;;22.55;13.70;;;18.60;99.90;;;;;;4132348;28;20041;-72
2021/07/11 05:38:27;;;;;;;17.77;13.00;;;18.50;99.90;;;;;;4136906;28;20038;-72
2021/07/11 05:40:28;;;;;;;25.10;15.45;;;18.60;99.90;;;;;;4135532;28;20039;-72
2021/07/11 05:42:29;;;;;;;23.63;16.10;;;18.60;99.90;;;;;;4138413;28;21327;-72
2021/07/11 05:44:29;;;;;;;23.67;14.40;;;18.60;99.90;;;;;;4135119;28;20133;-73
2021/07/11 05:46:30;;;;;;;18.92;13.90;;;18.60;99.90;;;;;;4133614;28;20057;-72
2021/07/11 05:48:31;;;;;;;24.00;16.17;;;18.60;99.90;;;;;;4129295;28;20502;-72
2021/07/11 05:50:31;;;;;;;30.02;19.65;;;18.60;99.90;;;;;;4135901;28;20042;-72
2021/07/11 05:52:32;;;;;;;27.45;19.13;;;18.60;99.90;;;;;;4136033;28;20038;-72
2021/07/11 05:54:33;;;;;;;27.67;17.70;;;18.50;99.90;;;;;;4130785;28;20036;-72
2021/07/11 05:56:33;;;;;;;26.92;19.33;;;18.50;99.90;;;;;;4138157;28;20105;-72
2021/07/11 05:58:34;;;;;;;29.27;18.65;;;18.50;99.90;;;;;;4133993;28;20046;-72
2021/07/11 06:00:35;;;;;;;25.42;18.50;;;18.50;99.90;;;;;;4130860;28;20037;-73
2021/07/11 06:02:35;;;;;;;32.42;20.52;;;18.50;99.90;;;;;;4134499;28;20037;-72
2021/07/11 06:04:37;;;;;;;26.75;18.63;;;18.50;99.90;;;;;;4136756;28;20567;-72
2021/07/11 06:06:37;;;;;;;29.95;20.92;;;18.50;99.90;;;;;;4137435;28;20374;-72
2021/07/11 06:08:38;;;;;;;31.88;21.02;;;18.60;99.90;;;;;;4139301;28;20116;-72
2021/07/11 06:10:38;;;;;;;29.30;18.75;;;18.50;99.90;;;;;;4140629;28;20030;-72
2021/07/11 06:12:39;;;;;;;26.73;18.48;;;18.60;99.90;;;;;;4139712;28;20355;-72
2021/07/11 06:14:40;;;;;;;26.83;19.33;;;18.60;99.90;;;;;;4138522;28;20041;-72
2021/07/11 06:16:41;;;;;;;29.80;19.95;;;18.70;99.90;;;;;;4138628;28;20410;-72
2021/07/11 06:18:41;;;;;;;28.55;19.73;;;18.70;99.90;;;;;;4138576;28;20124;-72
2021/07/11 06:20:42;;;;;;;28.27;18.95;;;18.70;99.90;;;;;;4132249;28;20046;-72
2021/07/11 06:22:43;;;;;;;32.60;22.50;;;18.70;99.90;;;;;;4136784;28;20045;-72
2021/07/11 06:24:43;;;;;;;33.72;21.70;;;18.70;99.90;;;;;;4135214;28;20486;-72
2021/07/11 06:26:44;;;;;;;30.20;20.95;;;18.60;99.90;;;;;;4135112;28;20038;-72
2021/07/11 06:28:45;;;;;;;31.15;22.77;;;18.70;99.90;;;;;;4137758;28;20036;-72
2021/07/11 06:30:46;;;;;;;35.28;23.40;;;18.70;99.90;;;;;;4135140;28;20037;-72
2021/07/11 06:32:47;;;;;;;32.20;21.83;;;18.60;99.90;;;;;;4138245;28;20369;-72
2021/07/11 06:34:48;;;;;;;34.00;23.08;;;18.60;99.90;;;;;;4136124;28;20497;-72
2021/07/11 06:36:48;;;;;;;37.95;25.42;;;18.70;99.90;;;;;;4132742;28;20071;-72
2021/07/11 06:38:49;;;;;;;40.30;26.58;;;18.60;99.90;;;;;;4130979;28;20057;-72
2021/07/11 06:40:49;;;;;;;39.78;24.20;;;18.60;99.90;;;;;;4136124;28;20030;-72
2021/07/11 06:42:50;;;;;;;34.97;22.75;;;18.60;99.90;;;;;;4136942;28;20685;-72
2021/07/11 06:44:51;;;;;;;33.08;21.73;;;18.60;99.90;;;;;;4136270;28;20042;-72
2021/07/11 06:46:52;;;;;;;36.65;23.35;;;18.70;99.90;;;;;;4137132;28;20027;-72
2021/07/11 06:48:52;;;;;;;45.13;27.60;;;18.70;99.90;;;;;;4138108;28;20394;-72
2021/07/11 06:50:55;;;;;;;42.28;27.50;;;18.70;99.90;;;;;;4135825;28;20041;-72
2021/07/11 06:52:55;;;;;;;37.72;24.55;;;18.70;99.90;;;;;;4133563;28;20375;-72
2021/07/11 06:54:56;;;;;;;38.58;25.30;;;18.70;99.90;;;;;;4137392;28;20092;-72
2021/07/11 06:56:57;;;;;;;46.42;27.55;;;18.70;99.90;;;;;;4135466;28;20032;-72
2021/07/11 06:58:57;;;;;;;42.28;26.35;;;18.70;99.90;;;;;;4135771;28;20105;-72
2021/07/11 07:00:58;;;;;;;43.97;27.40;;;18.70;99.90;;;;;;4138335;28;20037;-72
2021/07/11 07:02:58;;;;;;;43.35;26.65;;;18.70;99.90;;;;;;4137584;28;20096;-72
2021/07/11 07:04:59;;;;;;;39.78;26.10;;;18.70;99.90;;;;;;4137578;28;20564;-72
2021/07/11 07:07:00;;;;;;;53.92;33.03;;;18.70;99.90;;;;;;4138070;28;20088;-72
2021/07/11 07:09:01;;;;;;;45.58;27.63;;;18.60;99.90;;;;;;4132538;28;20050;-72
2021/07/11 07:11:02;;;;;;;44.97;26.30;;;18.60;99.90;;;;;;4135607;28;20061;-72
2021/07/11 07:13:03;;;;;;;50.10;29.10;;;18.60;99.90;;;;;;4152429;28;20032;-72
2021/07/11 07:15:05;;;;;;;43.30;27.67;;;18.60;99.90;;;;;;4138078;28;20054;-72
2021/07/11 07:17:06;;;;;;;43.55;27.55;;;18.70;99.90;;;;;;4138466;28;20610;-73
2021/07/11 07:19:07;;;;;;;47.35;29.65;;;18.70;99.90;;;;;;4136407;28;20080;-71
2021/07/11 07:21:07;;;;;;;42.40;26.65;;;18.60;99.90;;;;;;4128512;28;20053;-70
2021/07/11 07:23:08;;;;;;;41.67;26.75;;;18.70;99.90;;;;;;4137073;28;20059;-71
2021/07/11 07:25:11;;;;;;;45.30;27.95;;;18.70;99.90;;;;;;4133567;28;20115;-71
2021/07/11 07:27:11;;;;;;;43.33;26.52;;;18.70;99.90;;;;;;4132128;28;20142;-71
2021/07/11 07:29:12;;;;;;;40.97;26.30;;;18.80;99.90;;;;;;4134870;28;20121;-71
2021/07/11 07:31:13;;;;;;;43.50;27.67;;;18.80;99.90;;;;;;4136856;28;20057;-71
2021/07/11 07:33:13;;;;;;;46.83;29.73;;;18.80;99.90;;;;;;4135693;28;20169;-71
2021/07/11 07:35:16;;;;;;;61.38;36.70;;;18.80;99.90;;;;;;4134022;28;20043;-71
2021/07/11 07:37:17;;;;;;;45.72;28.15;;;18.80;99.90;;;;;;4138400;28;20042;-71
2021/07/11 07:39:17;;;;;;;47.25;28.83;;;18.80;99.90;;;;;;4137750;28;20438;-71
2021/07/11 07:41:18;;;;;;;52.92;31.27;;;18.80;99.90;;;;;;4130074;28;20617;-71
2021/07/11 07:43:18;;;;;;;48.28;29.55;;;18.80;99.90;;;;;;4132774;28;20034;-71
2021/07/11 07:45:20;;;;;;;49.35;28.95;;;18.80;99.90;;;;;;4134478;28;20052;-71
2021/07/11 07:47:21;;;;;;;45.80;29.25;;;18.80;99.90;;;;;;4134656;28;20105;-71
2021/07/11 07:49:21;;;;;;;58.00;35.65;;;18.90;99.90;;;;;;4136437;28;20454;-71
2021/07/11 07:51:22;;;;;;;50.38;29.50;;;18.70;99.90;;;;;;4141035;28;20040;-71
2021/07/11 07:53:23;;;;;;;52.45;30.13;;;18.80;99.90;;;;;;4136935;28;20104;-71
2021/07/11 07:55:23;;;;;;;57.53;31.65;;;18.80;99.90;;;;;;4139785;28;20038;-71
2021/07/11 07:57:24;;;;;;;49.60;30.67;;;18.80;99.90;;;;;;4138739;28;20492;-71
2021/07/11 07:59:24;;;;;;;42.33;26.75;;;18.80;99.90;;;;;;4138963;28;20084;-71
2021/07/11 08:01:25;;;;;;;53.38;33.42;;;18.80;99.90;;;;;;4138670;28;20044;-71
2021/07/11 08:03:26;;;;;;;49.70;30.00;;;18.80;99.90;;;;;;4140035;28;20045;-71
2021/07/11 08:05:27;;;;;;;50.42;30.85;;;18.80;99.90;;;;;;4138455;28;20037;-71
2021/07/11 08:07:28;;;;;;;54.13;33.70;;;18.80;99.90;;;;;;4138059;28;20045;-71
2021/07/11 08:09:28;;;;;;;47.97;29.25;;;18.70;99.90;;;;;;4133898;28;20037;-71
2021/07/11 08:11:29;;;;;;;55.47;32.60;;;18.70;99.90;;;;;;4135168;28;20042;-71
2021/07/11 08:13:30;;;;;;;50.17;31.27;;;18.80;99.90;;;;;;4140045;28;20073;-71
2021/07/11 08:15:31;;;;;;;48.83;29.45;;;18.80;99.90;;;;;;4137634;28;20038;-71
2021/07/11 08:17:32;;;;;;;46.30;27.90;;;18.80;99.90;;;;;;4139635;28;20092;-71
2021/07/11 08:19:33;;;;;;;46.75;29.15;;;18.80;99.90;;;;;;4138636;28;20220;-71
2021/07/11 08:21:34;;;;;;;44.45;27.42;;;18.90;99.90;;;;;;4138658;28;20053;-71
2021/07/11 08:23:35;;;;;;;45.50;28.20;;;18.80;99.90;;;;;;4138094;28;20037;-71
2021/07/11 08:25:35;;;;;;;55.58;32.95;;;18.90;99.90;;;;;;4138316;28;20076;-71
2021/07/11 08:27:37;;;;;;;43.38;28.48;;;18.90;99.90;;;;;;4138163;28;20042;-71
2021/07/11 08:29:37;;;;;;;46.17;28.92;;;18.90;99.90;;;;;;4138890;28;20042;-71
2021/07/11 08:31:38;;;;;;;43.92;27.40;;;18.90;99.90;;;;;;4138187;28;20780;-71
2021/07/11 08:33:39;;;;;;;41.95;27.17;;;19.00;99.90;;;;;;4138694;28;20042;-71
2021/07/11 08:35:39;;;;;;;45.85;28.45;;;19.00;99.90;;;;;;4139087;28;20053;-71
2021/07/11 08:37:40;;;;;;;41.38;26.67;;;19.00;99.90;;;;;;4140174;28;20076;-71
2021/07/11 08:39:41;;;;;;;49.42;29.50;;;19.10;99.90;;;;;;4138204;28;20061;-71
2021/07/11 08:41:42;;;;;;;46.75;28.92;;;19.20;99.90;;;;;;4137646;28;20038;-71
2021/07/11 08:43:45;;;;;;;47.38;28.40;;;19.20;99.90;;;;;;4138628;28;20107;-71
2021/07/11 08:45:46;;;;;;;59.88;35.60;;;19.20;99.90;;;;;;4138919;28;20038;-71
2021/07/11 08:47:47;;;;;;;48.88;29.65;;;19.20;99.90;;;;;;4138358;28;20045;-71
2021/07/11 08:49:48;;;;;;;51.08;32.03;;;19.20;99.90;;;;;;4139153;28;20053;-71
2021/07/11 08:51:55;;;;;;;52.30;33.03;;;19.20;99.90;;;;;;4133926;28;20041;-71
2021/07/11 08:53:56;;;;;;;54.70;32.65;;;19.10;99.90;;;;;;4135081;28;20040;-71
2021/07/11 08:56:01;;;;;;;48.67;29.50;;;19.20;99.90;;;;;;4136152;28;20126;-71
2021/07/11 08:58:03;;;;;;;50.28;31.10;;;19.20;99.90;;;;;;4137908;28;20038;-71
2021/07/11 09:00:05;;;;;;;53.22;33.25;;;19.20;99.90;;;;;;4138750;28;20864;-71
2021/07/11 09:02:06;;;;;;;46.08;28.85;;;19.20;99.90;;;;;;4131174;28;20045;-71
2021/07/11 09:04:10;;;;;;;51.83;33.03;;;19.30;99.90;;;;;;4135325;28;20053;-71
2021/07/11 09:06:10;;;;;;;51.65;30.17;;;19.30;99.90;;;;;;4139173;28;20045;-71
2021/07/11 09:08:23;;;;;;;50.47;31.50;;;19.40;99.90;;;;;;4139858;28;20640;-71
2021/07/11 09:10:31;;;;;;;47.50;30.77;;;19.50;99.90;;;;;;4133223;28;20048;-71
2021/07/11 09:12:32;;;;;;;53.53;32.20;;;19.60;99.90;;;;;;4135428;28;20042;-70
2021/07/11 09:14:38;;;;;;;42.63;26.50;;;19.70;99.90;;;;;;4136646;28;21281;-71
2021/07/11 09:16:45;;;;;;;47.13;29.58;;;19.70;99.90;;;;;;4138871;28;20143;-71
2021/07/11 09:18:51;;;;;;;52.33;31.48;;;19.90;99.90;;;;;;4136125;28;20038;-71
2021/07/11 09:21:06;;;;;;;49.13;30.38;;;20.00;99.90;;;;;;4138069;28;20038;-71
2021/07/11 09:23:06;;;;;;;51.00;32.28;;;20.10;99.90;;;;;;4139157;28;20042;-71
2021/07/11 09:25:07;;;;;;;63.13;37.67;;;20.20;99.90;;;;;;4139612;28;20052;-71
2021/07/11 09:27:10;;;;;;;45.45;29.13;;;20.30;99.90;;;;;;4139079;28;20818;-71
2021/07/11 09:29:11;;;;;;;44.70;26.75;;;20.40;99.90;;;;;;4140434;28;20460;-71
2021/07/11 09:31:14;;;;;;;38.75;24.52;;;20.50;99.90;;;;;;4137107;28;20062;-71
2021/07/11 09:33:18;;;;;;;42.83;27.38;;;20.60;99.90;;;;;;4137277;28;20042;-71
2021/07/11 09:35:25;;;;;;;45.83;29.08;;;20.70;99.90;;;;;;4137324;28;20548;-71
2021/07/11 09:37:25;;;;;;;41.17;26.17;;;20.70;99.90;;;;;;4135194;28;20030;-71
2021/07/11 09:39:26;;;;;;;40.70;24.88;;;20.90;99.90;;;;;;4135720;28;20052;-71
2021/07/11 09:41:33;;;;;;;45.10;27.05;;;21.00;99.90;;;;;;4139827;28;20706;-71
2021/07/11 09:43:41;;;;;;;44.10;27.40;;;21.00;99.90;;;;;;4137609;28;20493;-71
2021/07/11 09:45:42;;;;;;;38.92;26.95;;;21.10;99.90;;;;;;4137972;28;20037;-71
2021/07/11 09:47:45;;;;;;;34.58;22.55;;;21.20;99.90;;;;;;4134193;28;20041;-71
2021/07/11 09:50:04;;;;;;;;;;;21.30;99.90;;;;;;4132665;28;20410;-71
2021/07/11 09:52:05;;;;;;;32.85;21.15;;;21.30;99.90;;;;;;4134161;28;19949;-71
2021/07/11 09:54:12;;;;;;;32.72;22.23;;;21.40;99.90;;;;;;4138422;28;20034;-71
2021/07/11 09:56:37;;;;;;;42.90;28.05;;;21.50;99.90;;;;;;4137885;28;20061;-71
2021/07/11 09:58:38;;;;;;;33.35;22.48;;;21.50;99.90;;;;;;4132381;28;20378;-71
2021/07/11 10:00:41;;;;;;;29.00;19.95;;;21.60;99.90;;;;;;4136617;28;20134;-71
2021/07/11 10:02:43;;;;;;;34.42;23.67;;;21.60;99.90;;;;;;4137157;28;20056;-72
2021/07/11 10:04:44;;;;;;;32.28;22.48;;;21.70;99.90;;;;;;4137823;28;20038;-71
2021/07/11 10:06:44;;;;;;;31.40;20.98;;;21.80;99.90;;;;;;4135826;28;20121;-71
2021/07/11 10:08:45;;;;;;;28.90;19.50;;;21.90;99.90;;;;;;4136137;28;20069;-71
2021/07/11 10:10:46;;;;;;;29.58;18.60;;;22.00;99.90;;;;;;4132864;28;20697;-71
2021/07/11 10:12:47;;;;;;;28.25;19.38;;;22.10;99.90;;;;;;4137488;28;20018;-72
2021/07/11 10:14:47;;;;;;;24.38;17.10;;;22.20;99.90;;;;;;4132397;28;20054;-72
2021/07/11 10:16:48;;;;;;;33.05;21.55;;;22.30;99.90;;;;;;4136276;28;20046;-71
2021/07/11 10:18:54;;;;;;;23.33;16.92;;;22.30;99.90;;;;;;4134682;28;20041;-72
2021/07/11 10:20:57;;;;;;;25.45;16.17;;;22.40;99.90;;;;;;4136023;28;20041;-71
2021/07/11 10:22:58;;;;;;;;;;;22.30;99.90;;;;;;4136307;28;20057;-71
2021/07/11 10:24:58;;;;;;;18.95;13.00;;;22.40;99.90;;;;;;4132203;28;19949;-72